Time;durP1;ratioP1;P1;durP2;ratioP2;P2;SDS_P1;SDS_P2;PMS_P1;PMS_P2;Temp;Humidity;BMP_temperature;BMP_pressure;BME280_temperature;BME280_humidity;BME280_pressure;Samples;Min_cycle;Max_cycle;Signal;HPM_P1;HPM_P2
2022/03/25 00:02:31;;;;;;;24.93;19.00;;;7.30;1.00;;;;;;6219091;28;20231;-52
2022/03/25 00:05:36;;;;;;;24.57;18.77;;;7.20;1.00;;;;;;6241259;28;20234;-52
2022/03/25 00:08:38;;;;;;;28.30;18.53;;;7.20;1.00;;;;;;6259072;28;20481;-52
2022/03/25 00:11:41;;;;;;;24.77;18.43;;;7.20;1.00;;;;;;6246212;28;20233;-52
2022/03/25 00:14:44;;;;;;;28.57;19.80;;;7.10;1.00;;;;;;6228782;28;20891;-52
2022/03/25 00:17:47;;;;;;;27.27;18.77;;;7.10;1.00;;;;;;6233608;28;20404;-52
2022/03/25 00:20:51;;;;;;;26.07;18.83;;;7.00;1.00;;;;;;6244393;28;20238;-52
2022/03/25 00:23:54;;;;;;;25.03;18.07;;;7.00;1.00;;;;;;6226026;28;20283;-51
2022/03/25 00:26:56;;;;;;;24.37;19.17;;;7.00;1.00;;;;;;6215880;28;20235;-52
2022/03/25 00:29:59;;;;;;;28.30;19.17;;;6.90;1.00;;;;;;6215554;28;20845;-52
2022/03/25 00:33:02;;;;;;;25.20;19.03;;;6.90;1.00;;;;;;6221984;28;20436;-51
2022/03/25 00:36:07;;;;;;;24.90;19.20;;;7.00;1.00;;;;;;6238444;28;20246;-52
2022/03/25 00:39:09;;;;;;;28.63;19.53;;;6.80;1.00;;;;;;6247453;28;20390;-51
2022/03/25 00:42:17;;;;;;;24.83;18.77;;;6.70;1.00;;;;;;6247632;28;20371;-52
2022/03/25 00:45:21;;;;;;;27.93;18.60;;;7.10;1.00;;;;;;6248572;28;20249;-52
2022/03/25 00:48:23;;;;;;;30.00;19.90;;;6.90;1.00;;;;;;6249627;28;20258;-52
2022/03/25 00:51:28;;;;;;;26.03;18.20;;;6.70;1.00;;;;;;6239752;28;20242;-51
2022/03/25 00:54:31;;;;;;;25.20;18.23;;;6.90;1.00;;;;;;6236501;28;20527;-51
2022/03/25 00:57:33;;;;;;;23.93;17.83;;;6.70;1.00;;;;;;6234454;28;20396;-53
2022/03/25 01:00:37;;;;;;;26.90;19.13;;;6.70;1.00;;;;;;6243868;28;20606;-51
2022/03/25 01:03:40;;;;;;;24.23;17.40;;;6.80;1.00;;;;;;6253783;28;20233;-52
2022/03/25 01:06:46;;;;;;;26.33;18.90;;;6.80;1.00;;;;;;6256036;28;20234;-52
2022/03/25 01:09:48;;;;;;;30.60;21.83;;;6.60;1.00;;;;;;6260348;28;20713;-51
2022/03/25 01:12:52;;;;;;;28.90;21.20;;;6.50;1.00;;;;;;6251268;28;20723;-52
2022/03/25 01:15:54;;;;;;;31.97;21.57;;;6.60;1.00;;;;;;6260614;28;20264;-51
2022/03/25 01:18:59;;;;;;;26.80;18.87;;;6.60;1.00;;;;;;6248114;28;20253;-52
2022/03/25 01:22:04;;;;;;;27.43;20.40;;;6.50;1.00;;;;;;6254097;28;20242;-52
2022/03/25 01:25:08;;;;;;;31.07;20.90;;;6.50;1.00;;;;;;6235604;28;20261;-53
2022/03/25 01:28:11;;;;;;;28.57;20.03;;;6.50;1.00;;;;;;6234895;28;20234;-52
2022/03/25 01:31:14;;;;;;;29.77;20.47;;;6.50;1.00;;;;;;6236631;28;20242;-51
2022/03/25 01:34:17;;;;;;;27.77;20.37;;;6.40;1.00;;;;;;6246882;28;20754;-52
2022/03/25 01:37:23;;;;;;;28.33;19.53;;;6.40;1.00;;;;;;6260969;28;20641;-52
2022/03/25 01:40:25;;;;;;;31.40;21.33;;;6.50;1.00;;;;;;6239438;28;20711;-51
2022/03/25 01:43:28;;;;;;;30.93;22.10;;;6.40;1.00;;;;;;6234625;28;20231;-51
2022/03/25 01:46:32;;;;;;;32.67;21.70;;;6.40;1.00;;;;;;6235072;28;20246;-51
2022/03/25 01:49:35;;;;;;;33.40;22.23;;;6.40;1.00;;;;;;6224373;28;20239;-51
2022/03/25 01:52:39;;;;;;;30.17;22.20;;;6.30;1.00;;;;;;6214394;28;20678;-51
2022/03/25 01:55:50;;;;;;;32.20;22.13;;;6.30;1.00;;;;;;6223627;28;20249;-52
2022/03/25 01:58:53;;;;;;;32.80;23.30;;;6.40;1.00;;;;;;6258587;28;20246;-50
2022/03/25 02:01:56;;;;;;;29.40;21.77;;;6.40;1.00;;;;;;6259453;28;20741;-51
2022/03/25 02:04:59;;;;;;;34.60;22.87;;;6.10;1.00;;;;;;6229741;28;20614;-51
2022/03/25 02:08:04;;;;;;;31.30;21.93;;;6.20;1.00;;;;;;6217028;28;20351;-52
2022/03/25 02:11:08;;;;;;;28.70;20.87;;;6.10;1.00;;;;;;6233555;28;20230;-52
2022/03/25 02:14:12;;;;;;;29.87;22.03;;;6.10;1.00;;;;;;6238168;28;20239;-51
2022/03/25 02:17:15;;;;;;;28.47;20.20;;;6.30;1.00;;;;;;6226540;28;20785;-53
2022/03/25 02:20:18;;;;;;;27.77;20.50;;;6.20;1.00;;;;;;6240562;28;20373;-52
2022/03/25 02:23:23;;;;;;;27.17;19.33;;;6.00;1.00;;;;;;6218554;28;20230;-52
2022/03/25 02:26:27;;;;;;;26.23;20.40;;;5.90;1.00;;;;;;6213531;28;20470;-55
2022/03/25 02:29:32;;;;;;;27.90;20.87;;;6.10;1.00;;;;;;6219618;28;20364;-52
2022/03/25 02:32:35;;;;;;;28.40;20.53;;;6.00;1.00;;;;;;6237307;28;20244;-52
2022/03/25 02:35:39;;;;;;;36.27;21.87;;;6.20;1.00;;;;;;6232376;28;20271;-52
2022/03/25 02:38:43;;;;;;;28.07;20.97;;;6.00;1.00;;;;;;6239829;28;20755;-52
2022/03/25 02:41:46;;;;;;;28.80;20.30;;;6.10;1.00;;;;;;6239472;28;20238;-52
2022/03/25 02:44:49;;;;;;;27.73;20.80;;;6.00;1.00;;;;;;6242853;28;20334;-53
2022/03/25 02:47:52;;;;;;;31.73;20.40;;;6.00;1.00;;;;;;6252270;28;20426;-52
2022/03/25 02:50:55;;;;;;;29.80;21.03;;;5.80;1.00;;;;;;6258703;28;20313;-52
2022/03/25 02:53:59;;;;;;;26.90;19.70;;;5.90;1.00;;;;;;6257774;28;20316;-51
2022/03/25 02:57:01;;;;;;;30.67;21.83;;;6.20;1.00;;;;;;6241085;28;20355;-52
2022/03/25 03:00:08;;;;;;;31.00;21.97;;;5.90;1.00;;;;;;6233646;28;20335;-52
2022/03/25 03:03:10;;;;;;;35.33;22.37;;;5.90;1.00;;;;;;6239914;28;20313;-52
2022/03/25 03:06:14;;;;;;;32.60;22.53;;;5.80;1.00;;;;;;6247807;28;20606;-52
2022/03/25 03:09:18;;;;;;;29.20;21.23;;;5.90;1.00;;;;;;6257711;28;20308;-51
2022/03/25 03:12:21;;;;;;;30.43;21.43;;;5.80;1.00;;;;;;6256901;28;20302;-52
2022/03/25 03:15:24;;;;;;;30.90;22.90;;;5.80;1.00;;;;;;6258699;28;20647;-51
2022/03/25 03:18:27;;;;;;;32.93;22.63;;;5.70;1.00;;;;;;6252488;28;20394;-52
2022/03/25 03:21:31;;;;;;;31.03;21.83;;;5.80;1.00;;;;;;6245882;28;20622;-51
2022/03/25 03:24:35;;;;;;;36.73;22.83;;;5.70;1.00;;;;;;6233983;28;20366;-51
2022/03/25 03:27:38;;;;;;;31.10;22.23;;;5.60;1.00;;;;;;6233133;28;20319;-52
2022/03/25 03:30:41;;;;;;;35.70;23.57;;;5.70;1.00;;;;;;6233350;28;20320;-51
2022/03/25 03:33:44;;;;;;;33.87;21.93;;;5.60;1.00;;;;;;6238490;28;21579;-53
2022/03/25 03:36:47;;;;;;;31.27;22.13;;;6.00;1.00;;;;;;6263063;28;20930;-52
2022/03/25 03:39:51;;;;;;;32.20;23.93;;;5.80;1.00;;;;;;6262500;28;20608;-51
2022/03/25 03:42:54;;;;;;;29.47;21.63;;;5.70;1.00;;;;;;6266434;28;20317;-52
2022/03/25 03:45:57;;;;;;;29.50;21.80;;;5.70;1.00;;;;;;6219176;28;20235;-52
2022/03/25 03:49:00;;;;;;;30.23;21.80;;;5.80;1.00;;;;;;6218326;28;20235;-51
2022/03/25 03:52:04;;;;;;;35.00;23.57;;;5.50;1.00;;;;;;6229277;28;20243;-52
2022/03/25 03:55:09;;;;;;;32.97;22.90;;;5.80;1.00;;;;;;6218977;28;20681;-58
2022/03/25 03:58:12;;;;;;;35.23;22.80;;;5.50;1.00;;;;;;6235917;28;20422;-52
2022/03/25 04:01:15;;;;;;;35.67;23.73;;;5.60;1.00;;;;;;6238261;28;20312;-51
2022/03/25 04:04:18;;;;;;;28.90;21.27;;;5.60;1.00;;;;;;6227231;28;20242;-52
2022/03/25 04:07:22;;;;;;;36.43;25.17;;;5.90;1.00;;;;;;6264689;28;20237;-52
2022/03/25 04:10:26;;;;;;;33.33;22.83;;;5.80;1.00;;;;;;6239512;28;20258;-51
2022/03/25 04:13:30;;;;;;;33.67;22.93;;;5.80;1.00;;;;;;6236656;28;20783;-52
2022/03/25 04:16:32;;;;;;;32.93;22.70;;;5.50;1.00;;;;;;6236215;28;20245;-52
2022/03/25 04:19:35;;;;;;;28.43;21.97;;;5.70;1.00;;;;;;6242713;28;20238;-50
2022/03/25 04:22:38;;;;;;;33.97;23.10;;;5.60;1.00;;;;;;6235768;28;20380;-52
2022/03/25 04:25:42;;;;;;;31.87;22.40;;;5.80;1.00;;;;;;6235949;28;20234;-51
2022/03/25 04:28:45;;;;;;;28.30;21.50;;;5.80;1.00;;;;;;6235245;28;20376;-51
2022/03/25 04:31:48;;;;;;;31.47;22.37;;;5.40;1.00;;;;;;6243569;28;22615;-53
2022/03/25 04:34:51;;;;;;;32.57;23.63;;;5.80;1.00;;;;;;6254263;28;20311;-52
2022/03/25 04:37:54;;;;;;;40.27;24.83;;;5.70;1.00;;;;;;6247089;28;20329;-52
2022/03/25 04:40:58;;;;;;;35.43;22.77;;;5.70;1.00;;;;;;6248879;28;20241;-51
2022/03/25 04:44:00;;;;;;;32.00;22.87;;;5.60;1.00;;;;;;6254210;28;20634;-51
2022/03/25 04:47:03;;;;;;;29.40;21.57;;;5.80;1.00;;;;;;6258382;28;20392;-51
2022/03/25 04:50:07;;;;;;;31.03;22.40;;;5.90;1.00;;;;;;6243730;28;20463;-51
2022/03/25 04:53:09;;;;;;;28.77;22.13;;;6.00;1.00;;;;;;6255739;28;20240;-51
2022/03/25 04:56:14;;;;;;;32.33;24.10;;;5.70;1.00;;;;;;6256792;28;20230;-52
2022/03/25 04:59:16;;;;;;;30.30;21.73;;;5.70;1.00;;;;;;6249949;28;20244;-52
2022/03/25 05:02:20;;;;;;;27.70;21.10;;;5.70;1.00;;;;;;6259214;28;20248;-52
2022/03/25 05:05:23;;;;;;;30.13;21.17;;;5.90;1.00;;;;;;6256013;28;20238;-52
2022/03/25 05:08:26;;;;;;;29.87;20.80;;;5.70;1.00;;;;;;6252987;28;20333;-51
2022/03/25 05:11:30;;;;;;;30.87;21.60;;;6.00;1.00;;;;;;6263539;28;20244;-52
2022/03/25 05:14:34;;;;;;;31.80;21.73;;;5.70;1.00;;;;;;6258416;28;20242;-52
2022/03/25 05:17:44;;;;;;;37.00;22.73;;;5.90;1.00;;;;;;6257760;28;20581;-51
2022/03/25 05:20:46;;;;;;;33.77;22.70;;;6.00;1.00;;;;;;6258764;28;20255;-51
2022/03/25 05:23:49;;;;;;;37.13;23.13;;;5.90;1.00;;;;;;6257784;28;20259;-51
2022/03/25 05:26:53;;;;;;;36.70;22.00;;;6.10;1.00;;;;;;6260491;28;20319;-51
2022/03/25 05:29:56;;;;;;;31.57;21.60;;;5.80;1.00;;;;;;6256843;28;20330;-51
2022/03/25 05:32:59;;;;;;;33.40;21.80;;;5.90;1.00;;;;;;6262477;28;20719;-51
2022/03/25 05:36:02;;;;;;;32.10;21.57;;;6.30;1.00;;;;;;6257051;28;20336;-51
2022/03/25 05:39:06;;;;;;;27.77;20.03;;;6.00;1.00;;;;;;6251303;28;20545;-53
2022/03/25 05:42:10;;;;;;;29.33;20.60;;;6.10;1.00;;;;;;6258217;28;20249;-52
2022/03/25 05:45:13;;;;;;;26.40;19.57;;;6.20;1.00;;;;;;6261481;28;20371;-52
2022/03/25 05:48:16;;;;;;;32.27;21.73;;;6.10;1.00;;;;;;6256999;28;20250;-53
2022/03/25 05:51:19;;;;;;;30.50;21.70;;;6.20;1.00;;;;;;6258837;28;20782;-52
2022/03/25 05:54:22;;;;;;;29.27;21.40;;;6.20;1.00;;;;;;6255861;28;20258;-51
2022/03/25 05:57:26;;;;;;;29.33;21.07;;;6.30;1.00;;;;;;6247284;28;20234;-53
2022/03/25 06:00:28;;;;;;;29.93;21.07;;;5.80;1.00;;;;;;6258262;28;20315;-52
2022/03/25 06:03:32;;;;;;;27.53;20.07;;;6.40;1.00;;;;;;6257182;28;20309;-52
2022/03/25 06:06:35;;;;;;;25.37;19.17;;;6.60;1.00;;;;;;6267729;28;20242;-52
2022/03/25 06:09:38;;;;;;;24.83;18.53;;;6.50;1.00;;;;;;6258526;28;20233;-52
2022/03/25 06:12:42;;;;;;;28.90;21.37;;;6.60;1.00;;;;;;6256959;28;20240;-51
2022/03/25 06:15:46;;;;;;;28.57;20.07;;;6.60;1.00;;;;;;6260557;28;20739;-51
2022/03/25 06:18:48;;;;;;;40.20;22.30;;;7.10;1.00;;;;;;6255986;28;20298;-52
2022/03/25 06:21:51;;;;;;;34.03;22.43;;;7.00;1.00;;;;;;6257352;28;20604;-52
2022/03/25 06:24:54;;;;;;;28.60;20.93;;;7.10;1.00;;;;;;6264076;28;20251;-52
2022/03/25 06:27:59;;;;;;;27.83;20.47;;;7.20;1.00;;;;;;6258320;28;20329;-52
2022/03/25 06:31:02;;;;;;;26.67;20.20;;;7.50;1.00;;;;;;6225551;28;20255;-53
2022/03/25 06:34:05;;;;;;;26.03;18.57;;;7.40;1.00;;;;;;6246185;28;20577;-50
2022/03/25 06:37:08;;;;;;;29.83;19.40;;;7.50;1.00;;;;;;6257085;28;20319;-52
2022/03/25 06:40:12;;;;;;;26.60;19.23;;;7.70;1.00;;;;;;6241121;28;20646;-51
2022/03/25 06:43:17;;;;;;;27.77;19.20;;;7.80;1.00;;;;;;6261540;28;20340;-51
2022/03/25 06:46:20;;;;;;;37.53;22.53;;;7.90;1.00;;;;;;6229591;28;20616;-51
2022/03/25 06:49:23;;;;;;;37.73;22.60;;;8.10;1.00;;;;;;6231953;28;20244;-52
2022/03/25 06:52:26;;;;;;;34.73;21.13;;;8.70;1.00;;;;;;6232422;28;20230;-52
2022/03/25 06:55:30;;;;;;;35.50;22.60;;;9.10;1.00;;;;;;6245544;28;20376;-52
2022/03/25 06:58:34;;;;;;;36.90;22.17;;;9.20;1.00;;;;;;6241464;28;20237;-51
2022/03/25 07:01:38;;;;;;;34.20;22.57;;;9.40;1.00;;;;;;6239950;28;20235;-52
2022/03/25 07:04:42;;;;;;;34.17;22.87;;;9.50;1.00;;;;;;6236157;28;20266;-52
2022/03/25 07:07:45;;;;;;;40.77;23.07;;;9.50;1.00;;;;;;6238516;28;20893;-52
2022/03/25 07:10:49;;;;;;;37.97;21.33;;;9.60;1.00;;;;;;6257528;28;20512;-52
2022/03/25 07:13:54;;;;;;;36.60;22.00;;;9.70;1.00;;;;;;6251856;28;20251;-52
2022/03/25 07:16:57;;;;;;;38.63;22.67;;;10.00;1.00;;;;;;6244876;28;20288;-52
2022/03/25 07:20:00;;;;;;;38.57;23.27;;;10.20;1.00;;;;;;6259458;28;20249;-52
2022/03/25 07:23:03;;;;;;;39.60;22.13;;;10.30;1.00;;;;;;6267209;28;20241;-52
2022/03/25 07:26:07;;;;;;;41.57;22.93;;;10.30;1.00;;;;;;6237731;28;20238;-52
2022/03/25 07:29:11;;;;;;;32.07;22.60;;;10.30;1.00;;;;;;6251453;28;20291;-52
2022/03/25 07:32:14;;;;;;;35.23;22.53;;;10.30;1.00;;;;;;6251920;28;20317;-52
2022/03/25 07:35:18;;;;;;;38.03;22.57;;;10.50;1.00;;;;;;6240401;28;20546;-51
2022/03/25 07:38:21;;;;;;;38.80;23.30;;;10.80;1.00;;;;;;6241813;28;20397;-52
2022/03/25 07:41:24;;;;;;;41.70;23.83;;;11.00;1.00;;;;;;6257678;28;21402;-52
2022/03/25 07:44:28;;;;;;;36.43;23.67;;;11.10;1.00;;;;;;6258661;28;20321;-51
2022/03/25 07:47:32;;;;;;;38.57;24.37;;;11.20;1.00;;;;;;6253946;28;20553;-52
2022/03/25 07:50:34;;;;;;;40.63;23.47;;;11.20;1.00;;;;;;6259780;28;20374;-52
2022/03/25 07:53:38;;;;;;;45.87;25.30;;;11.20;1.00;;;;;;6263854;28;20737;-53
2022/03/25 07:56:40;;;;;;;37.77;23.80;;;11.30;1.00;;;;;;6254582;28;20317;-52
2022/03/25 07:59:44;;;;;;;36.50;24.97;;;11.30;1.00;;;;;;6249952;28;20232;-52
2022/03/25 08:02:51;;;;;;;39.03;24.10;;;11.30;1.00;;;;;;6237780;28;20292;-53
2022/03/25 08:05:55;;;;;;;36.93;24.83;;;11.30;1.00;;;;;;6261253;28;20242;-53
2022/03/25 08:08:59;;;;;;;40.27;23.83;;;11.50;1.00;;;;;;6249260;28;20889;-53
2022/03/25 08:12:02;;;;;;;36.87;23.27;;;11.70;1.00;;;;;;6252750;28;20403;-52
2022/03/25 08:15:08;;;;;;;43.60;23.57;;;11.80;1.00;;;;;;6270679;28;20396;-53
2022/03/25 08:18:11;;;;;;;40.40;23.83;;;11.80;1.00;;;;;;6242409;28;20345;-52
2022/03/25 08:21:14;;;;;;;41.03;24.37;;;12.00;1.00;;;;;;6238318;28;20246;-54
2022/03/25 08:27:52;;;;;;;42.30;25.30;;;12.20;1.00;;;;;;6258590;28;20319;-54
2022/03/25 08:30:56;;;;;;;38.30;24.03;;;12.30;1.00;;;;;;6236860;28;20233;-50
2022/03/25 08:33:58;;;;;;;37.97;24.83;;;12.40;1.00;;;;;;6244222;28;20711;-50
2022/03/25 08:37:01;;;;;;;36.60;24.00;;;12.50;1.00;;;;;;6237664;28;20846;-52
2022/03/25 08:40:05;;;;;;;40.67;25.20;;;12.60;1.00;;;;;;6259580;28;20241;-54
2022/03/25 08:43:13;;;;;;;42.37;24.87;;;12.80;1.00;;;;;;6235804;28;20238;-52
2022/03/25 08:46:19;;;;;;;39.53;25.43;;;12.80;1.00;;;;;;6231613;28;20718;-54
2022/03/25 08:49:22;;;;;;;41.83;26.73;;;12.90;1.00;;;;;;6245033;28;20826;-52
2022/03/25 08:52:25;;;;;;;45.13;25.20;;;13.00;1.00;;;;;;6259903;28;20264;-53
2022/03/25 08:55:28;;;;;;;42.33;25.87;;;13.10;1.00;;;;;;6253298;28;20265;-52
2022/03/25 08:58:31;;;;;;;39.53;26.67;;;13.20;1.00;;;;;;6259618;28;20234;-52
2022/03/25 09:01:36;;;;;;;37.33;24.50;;;13.30;1.00;;;;;;6260954;28;20562;-53
2022/03/25 09:04:39;;;;;;;37.13;27.03;;;13.40;1.00;;;;;;6262450;28;20238;-53
2022/03/25 09:07:42;;;;;;;44.13;29.33;;;13.60;1.00;;;;;;6258324;28;20244;-53
2022/03/25 09:10:47;;;;;;;46.03;28.47;;;13.80;1.00;;;;;;6266231;28;20321;-52
2022/03/25 09:13:50;;;;;;;48.77;28.93;;;14.00;1.00;;;;;;6259323;28;20706;-53
2022/03/25 09:16:54;;;;;;;41.57;28.97;;;14.10;1.00;;;;;;6256249;28;20241;-52
2022/03/25 09:19:57;;;;;;;49.63;27.67;;;14.20;1.00;;;;;;6261397;28;20234;-53
2022/03/25 09:23:00;;;;;;;43.83;27.60;;;14.20;1.00;;;;;;6246957;28;20238;-53
2022/03/25 09:26:04;;;;;;;40.17;26.87;;;14.20;1.00;;;;;;6262734;28;20310;-51
2022/03/25 09:29:08;;;;;;;45.97;27.83;;;14.30;1.00;;;;;;6247765;28;20269;-53
2022/03/25 09:32:12;;;;;;;43.03;28.47;;;14.50;1.00;;;;;;6244264;28;20257;-53
2022/03/25 09:35:23;;;;;;;48.07;29.10;;;14.60;1.00;;;;;;6257991;28;20268;-53
2022/03/25 09:38:26;;;;;;;49.00;29.70;;;14.60;1.00;;;;;;6240102;28;20238;-53
2022/03/25 09:41:35;;;;;;;37.80;28.70;;;14.70;1.00;;;;;;6245381;28;20300;-53
2022/03/25 09:44:41;;;;;;;49.93;31.10;;;14.80;1.00;;;;;;6253631;28;20241;-52
2022/03/25 09:47:47;;;;;;;46.43;30.00;;;14.80;1.00;;;;;;6235701;28;20239;-52
2022/03/25 09:50:50;;;;;;;44.23;29.77;;;14.90;1.00;;;;;;6238902;28;20364;-49
2022/03/25 09:54:15;;;;;;;44.87;29.07;;;14.90;1.00;;;;;;6237898;28;20247;-53
2022/03/25 09:57:18;;;;;;;45.27;30.40;;;14.90;1.00;;;;;;6233910;28;20249;-53
2022/03/25 10:00:21;;;;;;;48.50;30.83;;;15.00;1.00;;;;;;6251581;28;20244;-53
2022/03/25 10:03:27;;;;;;;47.60;28.63;;;15.20;1.00;;;;;;6230941;28;20242;-53
2022/03/25 10:06:30;;;;;;;48.23;28.83;;;15.30;1.00;;;;;;6232135;28;20234;-50
2022/03/25 10:09:33;;;;;;;47.10;29.23;;;15.40;1.00;;;;;;6257170;28;20225;-52
2022/03/25 10:12:37;;;;;;;46.80;30.43;;;15.60;1.00;;;;;;6249764;28;20280;-52
2022/03/25 10:15:39;;;;;;;43.77;29.67;;;15.70;1.00;;;;;;6239333;28;20763;-52
2022/03/25 10:18:53;;;;;;;46.43;29.70;;;15.80;1.00;;;;;;6242918;28;20295;-52
2022/03/25 10:21:58;;;;;;;52.67;31.10;;;15.90;1.00;;;;;;6249658;28;20322;-53
2022/03/25 10:25:00;;;;;;;46.53;30.57;;;15.80;1.00;;;;;;6255218;28;20287;-53
2022/03/25 10:28:05;;;;;;;43.70;29.83;;;15.70;1.00;;;;;;6257608;28;20329;-53
2022/03/25 10:31:11;;;;;;;43.37;30.37;;;15.90;1.00;;;;;;6228216;28;20239;-52
2022/03/25 10:34:21;;;;;;;44.27;30.10;;;16.10;1.00;;;;;;6233694;28;20884;-53
2022/03/25 10:37:25;;;;;;;47.53;31.17;;;16.30;1.00;;;;;;6257334;28;20242;-52
2022/03/25 10:40:28;;;;;;;42.60;31.50;;;16.40;1.00;;;;;;6244827;28;20323;-53
2022/03/25 10:43:31;;;;;;;48.80;31.53;;;16.60;1.00;;;;;;6244617;28;20241;-54
2022/03/25 10:46:36;;;;;;;43.83;30.67;;;16.70;1.00;;;;;;6253577;28;20379;-52
2022/03/25 10:49:43;;;;;;;41.97;29.47;;;16.70;1.00;;;;;;6233847;28;20234;-53
2022/03/25 10:52:46;;;;;;;40.00;27.97;;;16.80;1.00;;;;;;6236256;28;20689;-53
2022/03/25 10:55:54;;;;;;;45.73;29.07;;;16.90;1.00;;;;;;6264894;28;20246;-53
2022/03/25 10:58:58;;;;;;;38.40;29.80;;;17.00;1.00;;;;;;6250175;28;20262;-53
2022/03/25 11:02:04;;;;;;;42.60;29.10;;;17.00;1.00;;;;;;6246869;28;20716;-53
2022/03/25 11:05:10;;;;;;;43.90;27.20;;;17.10;1.00;;;;;;6244581;28;20855;-53
2022/03/25 11:08:13;;;;;;;44.53;30.33;;;17.20;1.00;;;;;;6247850;28;20883;-53
2022/03/25 11:11:17;;;;;;;39.27;28.13;;;17.30;1.00;;;;;;6248039;28;20313;-53
2022/03/25 11:14:20;;;;;;;45.47;28.83;;;17.40;1.00;;;;;;6256817;28;20265;-53
2022/03/25 11:17:23;;;;;;;39.47;27.33;;;17.50;1.00;;;;;;6234848;28;20244;-53
2022/03/25 11:20:28;;;;;;;39.57;27.67;;;17.60;1.00;;;;;;6258700;28;20710;-52
2022/03/25 11:23:40;;;;;;;35.17;26.53;;;17.70;1.00;;;;;;6254577;28;20801;-53
2022/03/25 11:26:47;;;;;;;38.23;27.83;;;17.60;1.00;;;;;;6244909;28;20234;-53
2022/03/25 11:29:54;;;;;;;39.07;27.37;;;17.70;1.00;;;;;;6269543;28;20236;-53
2022/03/25 11:33:06;;;;;;;35.47;25.60;;;17.80;1.00;;;;;;6246817;28;20327;-53
2022/03/25 11:36:15;;;;;;;39.60;25.40;;;17.70;1.00;;;;;;6231738;28;20854;-53
2022/03/25 11:39:21;;;;;;;39.97;27.37;;;17.70;1.00;;;;;;6243085;28;20273;-53
2022/03/25 11:42:38;;;;;;;40.57;27.17;;;17.60;1.00;;;;;;6256231;28;20238;-53
2022/03/25 11:45:41;;;;;;;43.40;26.30;;;17.30;1.00;;;;;;6252458;28;20300;-51
2022/03/25 11:48:44;;;;;;;37.07;26.37;;;17.30;1.00;;;;;;6241178;28;20254;-52
2022/03/25 11:51:48;;;;;;;39.77;26.00;;;17.20;1.00;;;;;;6256310;28;20234;-52
2022/03/25 11:54:55;;;;;;;38.53;24.93;;;17.30;1.00;;;;;;6255489;28;20279;-54
2022/03/25 11:58:14;;;;;;;35.77;24.80;;;17.30;1.00;;;;;;6259266;28;20237;-52
2022/03/25 12:01:36;;;;;;;36.87;24.27;;;17.40;1.00;;;;;;6233485;28;20613;-53
2022/03/25 12:04:39;;;;;;;34.57;23.83;;;17.50;1.00;;;;;;6240617;28;20234;-52
2022/03/25 12:11:11;;;;;;;37.10;24.03;;;17.50;1.00;;;;;;6287770;27;20588;-53
2022/03/25 12:14:14;;;;;;;29.73;22.27;;;18.10;1.00;;;;;;6277979;28;20244;-54
2022/03/25 12:17:24;;;;;;;36.80;22.60;;;18.30;1.00;;;;;;6278946;28;20328;-54
2022/03/25 12:20:42;;;;;;;32.20;21.57;;;18.50;1.00;;;;;;6278370;28;20236;-53
2022/03/25 12:23:55;;;;;;;32.47;17.73;;;18.80;1.00;;;;;;6280071;28;20667;-53
2022/03/25 12:27:02;;;;;;;25.67;17.37;;;18.70;1.00;;;;;;6278305;28;20275;-55
2022/03/25 12:30:06;;;;;;;31.90;16.00;;;18.80;1.00;;;;;;6278821;28;20854;-53
2022/03/25 12:33:09;;;;;;;28.10;16.00;;;18.70;1.00;;;;;;6287672;28;20724;-54
2022/03/25 12:36:12;;;;;;;16.10;13.67;;;18.90;1.00;;;;;;6285330;28;20229;-53
2022/03/25 12:39:15;;;;;;;23.97;16.07;;;18.60;1.00;;;;;;6282018;28;20339;-53
2022/03/25 12:42:19;;;;;;;22.67;16.33;;;18.60;1.00;;;;;;6280330;28;20285;-53
2022/03/25 12:45:28;;;;;;;30.40;17.30;;;18.50;1.00;;;;;;6275963;28;20312;-54
2022/03/25 12:48:31;;;;;;;26.43;16.43;;;18.60;1.00;;;;;;6277468;28;20401;-54
2022/03/25 12:51:34;;;;;;;26.23;16.27;;;18.60;1.00;;;;;;6279095;28;20252;-53
2022/03/25 12:54:37;;;;;;;22.57;16.77;;;18.70;1.00;;;;;;6278703;28;20328;-54
2022/03/25 12:57:42;;;;;;;24.17;16.00;;;18.50;1.00;;;;;;6284972;28;20579;-52
2022/03/25 13:00:47;;;;;;;26.17;17.17;;;18.50;1.00;;;;;;6278453;28;20240;-53
2022/03/25 13:03:51;;;;;;;23.83;17.23;;;18.40;1.00;;;;;;6289896;28;20305;-52
2022/03/25 13:06:57;;;;;;;20.53;15.37;;;18.40;1.00;;;;;;6286204;28;20232;-53
2022/03/25 13:10:00;;;;;;;26.40;16.03;;;18.40;1.00;;;;;;6281224;28;20257;-53
2022/03/25 13:13:06;;;;;;;25.97;16.77;;;18.60;1.00;;;;;;6277720;28;20233;-53
2022/03/25 13:16:10;;;;;;;27.07;16.13;;;18.80;1.00;;;;;;6280717;28;20332;-52
2022/03/25 13:19:13;;;;;;;30.30;17.07;;;18.50;1.00;;;;;;6288231;28;20241;-53
2022/03/25 13:22:17;;;;;;;26.57;17.23;;;18.50;1.00;;;;;;6253583;28;20371;-51
2022/03/25 13:25:28;;;;;;;26.00;17.47;;;18.50;1.00;;;;;;6262445;28;20761;-51
2022/03/25 13:28:35;;;;;;;23.77;16.87;;;18.70;1.00;;;;;;6260533;28;20280;-53
2022/03/25 13:31:37;;;;;;;23.97;15.67;;;18.90;1.00;;;;;;6260802;28;20241;-54
2022/03/25 13:34:40;;;;;;;22.17;15.90;;;18.90;1.00;;;;;;6265720;28;20325;-54
2022/03/25 13:37:43;;;;;;;24.57;16.00;;;18.90;1.00;;;;;;6265928;28;20349;-53
2022/03/25 13:40:47;;;;;;;21.33;15.47;;;18.90;1.00;;;;;;6259861;28;20291;-53
2022/03/25 13:44:06;;;;;;;21.17;16.63;;;19.00;1.00;;;;;;6271004;28;20238;-54
2022/03/25 13:47:10;;;;;;;24.57;18.47;;;19.20;1.00;;;;;;6266136;28;20245;-53
2022/03/25 13:50:15;;;;;;;28.60;18.47;;;19.20;1.00;;;;;;6259306;28;20323;-53
2022/03/25 13:53:32;;;;;;;25.17;17.87;;;19.10;1.00;;;;;;6258682;28;20321;-53
2022/03/25 13:56:38;;;;;;;26.23;18.27;;;18.90;1.00;;;;;;6269453;28;20317;-52
2022/03/25 13:59:43;;;;;;;22.67;15.97;;;19.00;1.00;;;;;;6264603;28;20735;-53
2022/03/25 14:02:49;;;;;;;24.17;17.37;;;18.90;1.00;;;;;;6261387;28;20260;-52
2022/03/25 14:05:52;;;;;;;28.00;18.43;;;18.90;1.00;;;;;;6258182;28;20238;-51
2022/03/25 14:08:55;;;;;;;27.50;18.10;;;18.90;1.00;;;;;;6265679;28;20237;-53
2022/03/25 14:11:59;;;;;;;21.73;17.33;;;18.90;1.00;;;;;;6260884;28;20906;-53
2022/03/25 14:15:05;;;;;;;23.03;18.27;;;18.70;1.00;;;;;;6258901;28;20237;-52
2022/03/25 14:18:17;;;;;;;35.60;18.70;;;18.60;1.00;;;;;;6261900;28;20241;-52
2022/03/25 14:21:24;;;;;;;28.33;19.30;;;18.60;1.00;;;;;;6257658;28;20234;-53
2022/03/25 14:24:34;;;;;;;22.83;18.87;;;18.50;1.00;;;;;;6276090;28;20316;-52
2022/03/25 14:27:38;;;;;;;28.37;19.30;;;18.50;1.00;;;;;;6287614;28;20244;-53
2022/03/25 14:30:42;;;;;;;24.37;19.33;;;18.40;1.00;;;;;;6281665;28;20325;-54
2022/03/25 14:33:45;;;;;;;26.40;19.70;;;18.60;1.00;;;;;;6276025;28;20229;-53
2022/03/25 14:36:47;;;;;;;24.93;18.23;;;18.60;1.00;;;;;;6283305;28;20286;-53
2022/03/25 14:39:50;;;;;;;24.60;20.03;;;18.60;1.00;;;;;;6282453;28;20312;-53
2022/03/25 14:42:53;;;;;;;27.10;20.57;;;18.50;1.00;;;;;;6283666;28;20318;-52
2022/03/25 14:45:57;;;;;;;29.37;18.73;;;18.40;1.00;;;;;;6284709;28;20237;-54
2022/03/25 14:49:01;;;;;;;23.97;17.93;;;18.30;1.00;;;;;;6279754;28;20237;-53
2022/03/25 14:52:06;;;;;;;27.40;18.73;;;18.20;1.00;;;;;;6284368;28;20244;-53
2022/03/25 14:55:17;;;;;;;23.97;17.50;;;18.10;1.00;;;;;;6283044;28;20324;-53
2022/03/25 14:58:21;;;;;;;23.97;16.13;;;18.20;1.00;;;;;;6279547;28;20245;-53
2022/03/25 15:01:25;;;;;;;27.47;18.23;;;18.40;1.00;;;;;;6283317;28;20260;-54
2022/03/25 15:04:28;;;;;;;27.77;17.50;;;18.60;1.00;;;;;;6282966;28;20237;-53
2022/03/25 15:07:31;;;;;;;29.97;17.57;;;18.60;1.00;;;;;;6280308;28;20378;-53
2022/03/25 15:10:33;;;;;;;22.70;16.87;;;18.60;1.00;;;;;;6283377;28;20283;-52
2022/03/25 15:13:37;;;;;;;24.73;17.70;;;18.70;1.00;;;;;;6289907;28;20225;-53
2022/03/25 15:16:41;;;;;;;20.50;17.07;;;18.70;1.00;;;;;;6279829;28;20828;-53
2022/03/25 15:19:44;;;;;;;27.23;17.77;;;18.60;1.00;;;;;;6289485;28;20259;-53
2022/03/25 15:22:47;;;;;;;27.07;18.07;;;18.50;1.00;;;;;;6285312;28;20241;-54
2022/03/25 15:25:50;;;;;;;27.10;16.63;;;18.30;1.00;;;;;;6285704;28;20359;-52
2022/03/25 15:28:53;;;;;;;22.07;15.37;;;18.20;1.00;;;;;;6286252;28;20316;-53
2022/03/25 15:35:19;;;;;;;22.27;15.87;;;18.10;1.00;;;;;;6280344;28;20698;-52
2022/03/25 15:38:35;;;;;;;22.73;16.17;;;18.10;1.00;;;;;;6273428;28;20924;-53
2022/03/25 15:41:38;;;;;;;28.17;16.93;;;17.90;1.00;;;;;;6282884;28;20328;-55
2022/03/25 15:44:41;;;;;;;24.97;16.37;;;17.80;1.00;;;;;;6283978;28;20238;-52
2022/03/25 15:47:45;;;;;;;21.50;15.90;;;17.60;1.00;;;;;;6281729;28;20246;-52
2022/03/25 15:50:48;;;;;;;24.60;17.33;;;17.50;1.00;;;;;;6283610;28;20399;-52
2022/03/25 15:53:51;;;;;;;24.83;16.43;;;17.50;1.00;;;;;;6281931;28;20237;-53
2022/03/25 15:56:53;;;;;;;19.77;15.30;;;17.40;1.00;;;;;;6281466;28;20236;-53
2022/03/25 15:59:58;;;;;;;27.23;16.57;;;17.20;1.00;;;;;;6287078;28;20753;-53
2022/03/25 16:03:05;;;;;;;21.63;17.37;;;17.10;1.00;;;;;;6276712;28;20229;-53